Time;durP1;ratioP1;P1;durP2;ratioP2;P2;SDS_P1;SDS_P2;PMS_P1;PMS_P2;Temp;Humidity;BMP_temperature;BMP_pressure;BME280_temperature;BME280_humidity;BME280_pressure;Samples;Min_cycle;Max_cycle;Signal;HPM_P1;HPM_P2
2022/01/02 00:01:43;;;;;;;9.25;5.07;;;13.00;99.90;;;;;;5029382;28;20375;-81
2022/01/02 00:04:14;;;;;;;9.60;4.53;;;13.10;99.90;;;;;;5029736;28;20017;-81
2022/01/02 00:06:46;;;;;;;8.18;4.53;;;13.20;99.90;;;;;;5029546;28;20132;-81
2022/01/02 00:09:34;;;;;;;8.10;4.80;;;13.30;99.90;;;;;;5029675;28;20025;-81
2022/01/02 00:12:05;;;;;;;9.35;5.03;;;13.40;99.90;;;;;;5029511;28;20455;-81
2022/01/02 00:14:35;;;;;;;8.52;3.92;;;13.40;99.90;;;;;;5029669;28;20043;-81
2022/01/02 00:17:04;;;;;;;7.57;4.30;;;13.30;99.90;;;;;;5029696;28;20041;-81
2022/01/02 00:19:31;;;;;;;7.45;4.50;;;13.40;99.90;;;;;;5010778;28;20025;-81
2022/01/02 00:22:01;;;;;;;8.38;4.68;;;13.30;99.90;;;;;;5011810;28;20017;-81
2022/01/02 00:24:28;;;;;;;6.82;4.43;;;13.40;99.90;;;;;;5010346;28;20085;-81
2022/01/02 00:26:56;;;;;;;9.77;4.30;;;13.50;99.90;;;;;;5010068;28;20113;-81
2022/01/02 00:29:22;;;;;;;9.15;4.95;;;13.50;99.90;;;;;;5010117;28;20026;-82
2022/01/02 00:31:48;;;;;;;11.27;4.60;;;13.40;99.90;;;;;;5009841;28;20022;-81
2022/01/02 00:34:15;;;;;;;8.60;4.32;;;13.40;99.90;;;;;;5029008;28;20022;-81
2022/01/02 00:36:42;;;;;;;8.27;4.47;;;13.30;99.90;;;;;;5028763;28;20389;-81
2022/01/02 00:39:07;;;;;;;9.40;5.10;;;13.40;99.90;;;;;;5028908;28;20014;-81
2022/01/02 00:42:07;;;;;;;11.13;5.15;;;13.40;99.90;;;;;;5029074;28;20466;-81
2022/01/02 00:44:45;;;;;;;9.70;4.95;;;13.50;99.90;;;;;;5003516;28;20029;-81
2022/01/02 00:47:43;;;;;;;11.65;4.60;;;13.50;99.90;;;;;;5028774;28;20060;-82
2022/01/02 00:50:20;;;;;;;8.88;5.00;;;13.40;99.90;;;;;;5028418;28;20034;-81
2022/01/02 00:52:47;;;;;;;10.18;4.35;;;13.30;99.90;;;;;;5028701;28;20493;-81
2022/01/02 00:55:24;;;;;;;13.68;4.75;;;13.20;99.90;;;;;;5028467;28;20525;-81
2022/01/02 00:57:58;;;;;;;8.82;5.13;;;13.20;99.90;;;;;;5028574;28;20021;-81
2022/01/02 01:00:25;;;;;;;11.38;5.28;;;13.20;99.90;;;;;;5028572;28;20026;-82
2022/01/02 01:02:53;;;;;;;8.88;5.03;;;13.20;99.90;;;;;;5011099;28;20060;-81
2022/01/02 01:05:35;;;;;;;8.00;4.43;;;13.20;99.90;;;;;;5028485;28;20109;-82
2022/01/02 01:08:06;;;;;;;11.82;4.57;;;13.20;99.90;;;;;;5028704;28;20029;-81
2022/01/02 01:10:35;;;;;;;9.68;4.65;;;13.20;99.90;;;;;;5028545;28;20437;-82
2022/01/02 01:13:03;;;;;;;8.20;5.03;;;13.20;99.90;;;;;;5028914;28;20101;-82
2022/01/02 01:15:31;;;;;;;8.88;5.05;;;13.20;99.90;;;;;;5014810;28;20398;-82
2022/01/02 01:17:58;;;;;;;9.13;4.68;;;13.10;99.90;;;;;;5032618;28;20482;-81
2022/01/02 01:20:27;;;;;;;10.43;5.30;;;13.10;99.90;;;;;;5032327;28;20091;-82
2022/01/02 01:22:54;;;;;;;9.77;4.85;;;13.10;99.90;;;;;;5014743;28;20477;-81
2022/01/02 01:25:21;;;;;;;10.27;5.47;;;13.10;99.90;;;;;;5032544;28;20026;-82
2022/01/02 01:27:48;;;;;;;9.93;5.40;;;13.10;99.90;;;;;;5032164;28;20041;-82
2022/01/02 01:30:17;;;;;;;13.35;5.45;;;13.00;99.90;;;;;;5010617;28;20022;-82
2022/01/02 01:32:43;;;;;;;11.77;5.95;;;13.00;99.90;;;;;;5032233;28;20064;-82
2022/01/02 01:35:10;;;;;;;16.13;7.10;;;13.00;99.90;;;;;;5031922;28;20017;-82
2022/01/02 01:37:37;;;;;;;19.00;8.15;;;13.00;99.90;;;;;;5032126;28;20026;-82
2022/01/02 01:40:08;;;;;;;15.98;5.80;;;13.00;99.90;;;;;;5014257;28;20087;-82
2022/01/02 01:47:45;;;;;;;12.52;6.57;;;12.80;99.90;;;;;;5031803;28;20136;-81
2022/01/02 01:50:11;;;;;;;14.77;6.28;;;12.80;99.90;;;;;;4986096;28;20422;-81
2022/01/02 01:52:36;;;;;;;16.05;7.88;;;12.80;99.90;;;;;;5012697;28;20034;-81
2022/01/02 01:55:03;;;;;;;15.65;6.03;;;12.80;99.90;;;;;;4995253;28;20036;-81
2022/01/02 01:57:29;;;;;;;20.50;7.55;;;12.80;99.90;;;;;;5012520;28;20637;-81
2022/01/02 01:59:54;;;;;;;15.57;6.50;;;12.80;99.90;;;;;;5012543;28;20193;-81
2022/01/02 02:02:23;;;;;;;14.93;6.25;;;12.70;99.90;;;;;;5012726;28;20426;-81
2022/01/02 02:04:49;;;;;;;14.98;7.88;;;12.70;99.90;;;;;;5012420;28;20105;-81
2022/01/02 02:07:15;;;;;;;13.07;5.82;;;12.70;99.90;;;;;;5012336;28;20117;-81
2022/01/02 02:10:04;;;;;;;14.80;6.80;;;12.70;99.90;;;;;;5012283;28;20566;-81
2022/01/02 02:12:30;;;;;;;13.75;5.80;;;12.70;99.90;;;;;;5012332;28;20030;-81
2022/01/02 02:14:56;;;;;;;21.40;6.50;;;12.80;99.90;;;;;;5012360;28;20133;-81
2022/01/02 02:17:23;;;;;;;15.77;5.20;;;12.80;99.90;;;;;;5012285;28;20050;-82
2022/01/02 02:19:55;;;;;;;18.17;6.43;;;12.70;99.90;;;;;;5012145;28;20034;-82
2022/01/02 02:22:21;;;;;;;17.77;7.18;;;12.70;99.90;;;;;;4994726;28;20028;-81
2022/01/02 02:24:46;;;;;;;25.02;6.82;;;12.80;99.90;;;;;;5012089;28;20026;-81
2022/01/02 02:27:12;;;;;;;20.02;5.80;;;12.80;99.90;;;;;;5012296;28;20437;-81
2022/01/02 02:29:38;;;;;;;14.57;5.40;;;12.70;99.90;;;;;;5012199;28;20041;-82
2022/01/02 02:32:03;;;;;;;15.95;4.88;;;12.80;99.90;;;;;;4994703;28;20037;-82
2022/01/02 02:34:29;;;;;;;20.48;6.13;;;12.90;99.90;;;;;;5011897;28;20237;-82
2022/01/02 02:36:55;;;;;;;24.90;6.78;;;12.90;99.90;;;;;;5012098;28;20060;-82
2022/01/02 02:39:20;;;;;;;18.70;6.15;;;12.80;99.90;;;;;;5012026;28;20018;-81
2022/01/02 02:41:46;;;;;;;21.85;5.43;;;12.80;99.90;;;;;;5012204;28;20336;-82
2022/01/02 02:48:33;;;;;;;19.98;5.28;;;12.80;99.90;;;;;;5011760;28;20221;-82
2022/01/02 02:49:45;;;;;;;19.88;5.82;;;12.90;99.90;;;;;;5011590;28;20092;-82
2022/01/02 02:52:24;;;;;;;19.50;5.20;;;12.90;99.90;;;;;;5011637;28;20406;-81
2022/01/02 02:54:51;;;;;;;21.85;5.55;;;13.00;99.90;;;;;;5011717;28;20025;-82
2022/01/02 02:57:19;;;;;;;21.95;5.32;;;13.00;99.90;;;;;;5005205;28;20121;-82
2022/01/02 02:59:45;;;;;;;20.58;5.40;;;13.00;99.90;;;;;;5005266;28;20076;-81
2022/01/02 03:02:10;;;;;;;20.95;5.63;;;12.90;99.90;;;;;;5030431;28;20021;-81
2022/01/02 03:04:36;;;;;;;19.10;5.43;;;12.90;99.90;;;;;;5030735;28;20100;-81
2022/01/02 03:07:02;;;;;;;16.30;5.47;;;12.80;99.90;;;;;;5030562;28;20068;-82
2022/01/02 03:09:51;;;;;;;27.70;6.25;;;12.80;99.90;;;;;;5030676;28;20026;-81
2022/01/02 03:12:14;;;;;;;20.58;5.53;;;12.80;99.90;;;;;;5029701;28;20069;-82
2022/01/02 03:14:40;;;;;;;21.40;5.72;;;12.80;99.90;;;;;;5030244;28;20053;-81
2022/01/02 03:17:06;;;;;;;23.23;6.00;;;12.80;99.90;;;;;;5030193;28;20079;-82
2022/01/02 03:19:33;;;;;;;26.90;6.10;;;12.90;99.90;;;;;;5029981;28;20485;-82
2022/01/02 03:21:59;;;;;;;25.50;5.85;;;13.00;99.90;;;;;;5012483;28;20025;-81
2022/01/02 03:24:25;;;;;;;23.52;5.75;;;12.90;99.90;;;;;;5030443;28;20017;-82
2022/01/02 03:26:51;;;;;;;25.00;5.72;;;12.90;99.90;;;;;;5004554;28;20037;-81
2022/01/02 03:29:17;;;;;;;23.77;5.60;;;12.90;99.90;;;;;;5011237;28;20033;-82
2022/01/02 03:31:42;;;;;;;21.90;5.10;;;12.90;99.90;;;;;;5011426;28;20486;-82
2022/01/02 03:34:08;;;;;;;23.50;6.18;;;13.00;99.90;;;;;;5011136;28;20026;-82
2022/01/02 03:36:34;;;;;;;33.92;5.70;;;13.00;99.90;;;;;;5009766;28;20077;-82
2022/01/02 03:39:00;;;;;;;20.20;5.15;;;13.00;99.90;;;;;;5010920;28;20021;-82
2022/01/02 03:41:25;;;;;;;18.05;5.22;;;13.10;99.90;;;;;;5010910;28;20134;-81
2022/01/02 03:43:51;;;;;;;20.83;4.78;;;13.20;99.90;;;;;;5010816;28;20022;-82
2022/01/02 03:46:17;;;;;;;28.20;5.35;;;13.30;99.90;;;;;;5010805;28;20425;-81
2022/01/02 03:48:43;;;;;;;23.25;5.13;;;13.30;99.90;;;;;;5010747;28;20506;-82
2022/01/02 03:51:08;;;;;;;27.05;5.50;;;13.30;99.90;;;;;;5010702;28;20040;-81
2022/01/02 03:53:34;;;;;;;19.35;4.47;;;13.40;99.90;;;;;;5010683;28;20113;-81
2022/01/02 03:56:00;;;;;;;22.33;5.70;;;13.50;99.90;;;;;;5010740;28;20487;-81
2022/01/02 03:58:26;;;;;;;23.05;5.10;;;13.50;99.90;;;;;;5010376;28;20073;-82
2022/01/02 04:00:52;;;;;;;15.95;4.15;;;13.50;99.90;;;;;;5010336;28;20033;-82
2022/01/02 04:03:17;;;;;;;20.05;4.40;;;13.50;99.90;;;;;;5010764;28;20264;-82
2022/01/02 04:05:44;;;;;;;23.30;5.22;;;13.40;99.90;;;;;;5010292;28;20029;-82
2022/01/02 04:08:10;;;;;;;18.92;5.03;;;13.40;99.90;;;;;;5010359;28;20026;-82
2022/01/02 04:10:41;;;;;;;22.42;4.68;;;13.30;99.90;;;;;;4992907;28;20033;-82
2022/01/02 04:13:07;;;;;;;24.60;5.15;;;13.20;99.90;;;;;;5010548;28;20414;-82
2022/01/02 04:15:34;;;;;;;22.90;4.80;;;13.20;99.90;;;;;;5010458;28;20030;-81
2022/01/02 04:17:59;;;;;;;21.67;5.40;;;13.10;99.90;;;;;;4990588;28;20030;-81
2022/01/02 04:20:25;;;;;;;22.20;5.20;;;13.10;99.90;;;;;;5009982;28;20402;-81
2022/01/02 04:22:51;;;;;;;24.88;5.65;;;13.10;99.90;;;;;;5010159;28;20072;-81
2022/01/02 04:25:17;;;;;;;26.13;4.95;;;13.00;99.90;;;;;;5010422;28;20053;-81
2022/01/02 04:27:42;;;;;;;26.55;6.13;;;13.00;99.90;;;;;;5010284;28;20029;-81
2022/01/02 04:30:11;;;;;;;23.90;5.88;;;13.00;99.90;;;;;;4986476;28;20546;-81
2022/01/02 04:32:37;;;;;;;22.75;5.13;;;12.90;99.90;;;;;;5003634;28;20033;-81
2022/01/02 04:35:03;;;;;;;16.33;4.22;;;13.00;99.90;;;;;;5009949;28;20026;-82
2022/01/02 04:37:29;;;;;;;19.67;5.22;;;12.90;99.90;;;;;;5010013;28;20030;-82
2022/01/02 04:39:54;;;;;;;21.02;5.28;;;13.00;99.90;;;;;;4992567;28;20120;-81
2022/01/02 04:42:20;;;;;;;26.20;6.05;;;13.00;99.90;;;;;;4989286;28;20084;-82
2022/01/02 04:44:46;;;;;;;22.17;5.57;;;13.00;99.90;;;;;;5008590;28;20026;-81
2022/01/02 04:47:12;;;;;;;24.17;5.13;;;13.00;99.90;;;;;;5009439;28;20042;-81
2022/01/02 04:49:37;;;;;;;27.75;5.82;;;13.00;99.90;;;;;;5009749;28;20044;-81
2022/01/02 04:52:03;;;;;;;23.20;5.60;;;13.00;99.90;;;;;;5010130;28;20154;-81
2022/01/02 04:54:29;;;;;;;20.17;5.25;;;13.00;99.90;;;;;;5009860;28;20030;-81
2022/01/02 04:56:55;;;;;;;24.02;5.05;;;13.00;99.90;;;;;;4992229;28;20022;-81
2022/01/02 04:59:20;;;;;;;33.45;6.47;;;13.00;99.90;;;;;;4994571;28;20040;-82
2022/01/02 05:01:46;;;;;;;15.95;4.63;;;13.10;99.90;;;;;;5028601;28;20029;-82
2022/01/02 05:04:12;;;;;;;15.38;4.18;;;13.10;99.90;;;;;;5010960;28;20076;-81
2022/01/02 05:06:39;;;;;;;23.23;4.28;;;13.30;99.90;;;;;;5028680;28;20029;-81
2022/01/02 05:09:04;;;;;;;23.08;5.00;;;13.40;99.90;;;;;;5028600;28;20089;-81
2022/01/02 05:11:30;;;;;;;20.33;3.90;;;13.50;99.90;;;;;;5028770;28;20096;-82
2022/01/02 05:13:56;;;;;;;23.10;4.82;;;13.50;99.90;;;;;;5028678;28;20036;-81
2022/01/02 05:16:22;;;;;;;21.70;4.43;;;13.60;99.90;;;;;;5028484;28;20144;-81
2022/01/02 05:18:47;;;;;;;12.95;4.15;;;13.60;99.90;;;;;;5028587;28;20117;-82
2022/01/02 05:21:13;;;;;;;23.67;5.00;;;13.50;99.90;;;;;;5028327;28;20461;-82
2022/01/02 05:23:39;;;;;;;18.08;4.78;;;13.50;99.90;;;;;;5028240;28;20030;-82
2022/01/02 05:26:05;;;;;;;23.30;5.90;;;13.50;99.90;;;;;;5028698;28;20458;-82
2022/01/02 05:28:30;;;;;;;25.90;4.57;;;13.50;99.90;;;;;;5003180;28;20040;-81
2022/01/02 05:30:56;;;;;;;23.73;4.45;;;13.50;99.90;;;;;;4988912;28;20070;-82
2022/01/02 05:33:22;;;;;;;18.02;3.83;;;13.50;99.90;;;;;;5009062;28;20030;-81
2022/01/02 05:35:47;;;;;;;21.23;4.95;;;13.40;99.90;;;;;;5009323;28;20301;-81
2022/01/02 05:38:13;;;;;;;19.13;5.32;;;13.40;99.90;;;;;;5009583;28;20031;-81
2022/01/02 05:40:39;;;;;;;25.25;4.75;;;13.40;99.90;;;;;;5009522;28;20060;-82
2022/01/02 05:43:06;;;;;;;20.35;4.75;;;13.40;99.90;;;;;;5009384;28;20025;-81
2022/01/02 05:45:32;;;;;;;25.23;4.78;;;13.40;99.90;;;;;;5009450;28;20457;-81
2022/01/02 05:47:59;;;;;;;19.83;4.93;;;13.40;99.90;;;;;;5008899;28;20052;-81
2022/01/02 05:50:25;;;;;;;21.05;4.63;;;13.30;99.90;;;;;;5009209;28;20072;-81
2022/01/02 05:52:50;;;;;;;26.30;4.70;;;13.30;99.90;;;;;;5009450;28;20490;-81
2022/01/02 05:55:17;;;;;;;25.50;4.78;;;13.30;99.90;;;;;;5009576;28;20022;-81
2022/01/02 05:57:43;;;;;;;28.85;5.57;;;13.20;99.90;;;;;;4991834;28;20398;-81
2022/01/02 06:00:09;;;;;;;24.88;5.45;;;13.20;99.90;;;;;;5011159;28;20025;-82
2022/01/02 06:02:36;;;;;;;29.13;5.30;;;13.10;99.90;;;;;;5012686;28;20065;-82
2022/01/02 06:05:03;;;;;;;23.95;4.75;;;13.10;99.90;;;;;;4994945;28;20383;-81
2022/01/02 06:07:31;;;;;;;30.75;5.10;;;13.10;99.90;;;;;;5012731;28;20041;-81
2022/01/02 06:09:57;;;;;;;33.47;5.30;;;13.10;99.90;;;;;;5012814;28;20391;-81
2022/01/02 06:12:25;;;;;;;28.40;5.13;;;13.10;99.90;;;;;;5012626;28;20044;-82
2022/01/02 06:14:51;;;;;;;31.20;5.10;;;13.10;99.90;;;;;;5012622;28;20026;-81
2022/01/02 06:17:16;;;;;;;29.63;5.53;;;13.10;99.90;;;;;;5012402;28;20387;-82
2022/01/02 06:19:42;;;;;;;28.60;5.45;;;13.00;99.90;;;;;;5012482;28;20018;-82
2022/01/02 06:22:08;;;;;;;36.13;5.80;;;13.00;99.90;;;;;;5012409;28;20040;-82
2022/01/02 06:24:33;;;;;;;33.65;6.70;;;12.90;99.90;;;;;;5012244;28;20018;-81
2022/01/02 06:26:59;;;;;;;32.80;6.40;;;13.00;99.90;;;;;;5012132;28;20069;-82
2022/01/02 06:29:25;;;;;;;34.40;6.95;;;13.00;99.90;;;;;;5012194;28;20025;-82
2022/01/02 06:31:51;;;;;;;22.60;5.45;;;13.00;99.90;;;;;;5012424;28;20038;-82
2022/01/02 06:34:16;;;;;;;32.20;6.10;;;13.00;99.90;;;;;;5012316;28;20573;-81
2022/01/02 06:36:42;;;;;;;33.70;6.25;;;13.10;99.90;;;;;;5012151;28;20026;-82
2022/01/02 06:39:08;;;;;;;26.38;4.88;;;13.10;99.90;;;;;;4994682;28;20441;-82
2022/01/02 06:41:34;;;;;;;32.80;6.15;;;13.10;99.90;;;;;;5012238;28;20033;-82
2022/01/02 06:43:59;;;;;;;28.33;5.65;;;13.10;99.90;;;;;;5011826;28;20500;-81
2022/01/02 06:46:25;;;;;;;32.33;6.18;;;12.90;99.90;;;;;;4991165;28;20038;-81
2022/01/02 06:48:51;;;;;;;30.67;5.80;;;12.90;99.90;;;;;;4992738;28;20041;-81
2022/01/02 06:51:16;;;;;;;27.27;5.63;;;12.80;99.90;;;;;;5011850;28;20104;-82
2022/01/02 06:53:42;;;;;;;24.90;5.70;;;12.80;99.90;;;;;;5012065;28;20049;-81
2022/01/02 06:56:07;;;;;;;27.60;6.13;;;12.70;99.90;;;;;;5011826;28;20252;-81
2022/01/02 06:58:38;;;;;;;37.10;7.20;;;12.70;99.90;;;;;;5011802;28;20033;-82
2022/01/02 07:01:05;;;;;;;37.28;5.82;;;12.60;99.90;;;;;;5011625;28;20597;-81
2022/01/02 07:03:30;;;;;;;38.30;6.38;;;12.60;99.90;;;;;;5011362;28;20060;-81
2022/01/02 07:05:56;;;;;;;32.03;6.65;;;12.50;99.90;;;;;;5011279;28;20402;-82
2022/01/02 07:08:22;;;;;;;39.22;6.75;;;12.50;99.90;;;;;;5011354;28;20560;-81
2022/01/02 07:10:48;;;;;;;34.85;6.72;;;12.50;99.90;;;;;;5011375;28;20222;-82
2022/01/02 07:13:14;;;;;;;36.85;5.97;;;12.50;99.90;;;;;;5011795;28;20109;-81
2022/01/02 07:15:39;;;;;;;39.97;6.32;;;12.50;99.90;;;;;;5011743;28;20490;-82
2022/01/02 07:18:05;;;;;;;37.13;6.30;;;12.60;99.90;;;;;;5011539;28;20467;-82
2022/01/02 07:20:31;;;;;;;28.70;5.97;;;12.60;99.90;;;;;;5011473;28;20037;-82
2022/01/02 07:22:56;;;;;;;33.80;6.05;;;12.60;99.90;;;;;;5011317;28;20158;-81
2022/01/02 07:25:22;;;;;;;33.40;6.10;;;12.70;99.90;;;;;;5011509;28;20462;-81
2022/01/02 07:27:48;;;;;;;24.02;5.78;;;12.70;99.90;;;;;;5011070;28;20099;-81
2022/01/02 07:30:13;;;;;;;27.88;7.20;;;12.70;99.90;;;;;;5011212;28;20113;-81
2022/01/02 07:32:39;;;;;;;38.47;6.72;;;12.70;99.90;;;;;;5011570;28;20038;-81
2022/01/02 07:35:06;;;;;;;35.30;6.43;;;12.70;99.90;;;;;;5004576;28;20022;-81
2022/01/02 07:37:36;;;;;;;45.95;6.55;;;12.70;99.90;;;;;;5030547;28;20299;-81
2022/01/02 07:40:04;;;;;;;41.75;7.05;;;12.70;99.90;;;;;;5017378;28;20032;-81
2022/01/02 07:42:30;;;;;;;41.97;6.68;;;12.70;99.90;;;;;;5004553;28;20018;-81
2022/01/02 07:44:55;;;;;;;45.97;7.15;;;12.70;99.90;;;;;;5029403;28;20032;-81
2022/01/02 07:47:21;;;;;;;42.35;7.35;;;12.70;99.90;;;;;;5029549;28;20037;-81
2022/01/02 07:49:47;;;;;;;41.78;7.22;;;12.70;99.90;;;;;;5029190;28;20092;-81
2022/01/02 07:52:12;;;;;;;40.92;7.20;;;12.70;99.90;;;;;;5030019;28;20018;-81
2022/01/02 07:54:38;;;;;;;49.28;7.72;;;12.70;99.90;;;;;;5029569;28;20390;-82
2022/01/02 07:57:04;;;;;;;50.90;7.55;;;12.70;99.90;;;;;;5029666;28;20083;-82
2022/01/02 07:59:30;;;;;;;40.35;7.55;;;12.70;99.90;;;;;;5029597;28;20052;-82
2022/01/02 08:01:56;;;;;;;44.88;7.35;;;12.70;99.90;;;;;;5029718;28;20053;-84
2022/01/02 08:04:21;;;;;;;51.50;7.43;;;12.70;99.90;;;;;;5029315;28;20258;-84
2022/01/02 08:06:47;;;;;;;44.15;6.57;;;12.70;99.90;;;;;;5029538;28;20029;-84
2022/01/02 08:09:13;;;;;;;49.53;7.90;;;12.70;99.90;;;;;;5029082;28;20223;-84
2022/01/02 08:11:38;;;;;;;39.40;6.28;;;12.80;99.90;;;;;;5029346;28;20262;-84
2022/01/02 08:14:04;;;;;;;38.83;5.95;;;12.70;99.90;;;;;;5029246;28;20441;-84
2022/01/02 08:16:30;;;;;;;44.05;6.38;;;12.70;99.90;;;;;;5029420;28;20014;-84
2022/01/02 08:18:56;;;;;;;39.63;7.05;;;12.70;99.90;;;;;;5029193;28;20064;-84
2022/01/02 08:21:21;;;;;;;41.05;7.43;;;12.70;99.90;;;;;;5011210;28;20057;-84
2022/01/02 08:23:47;;;;;;;46.95;7.18;;;12.80;99.90;;;;;;5028913;28;20041;-83
2022/01/02 08:26:12;;;;;;;49.83;6.50;;;12.80;99.90;;;;;;5011252;28;20040;-84
2022/01/02 08:28:38;;;;;;;49.38;7.10;;;12.80;99.90;;;;;;5029284;28;20029;-84
2022/01/02 08:31:04;;;;;;;58.88;8.73;;;12.80;99.90;;;;;;5028842;28;20057;-84
2022/01/02 08:33:31;;;;;;;53.90;7.55;;;12.80;99.90;;;;;;5029201;28;20285;-84
2022/01/02 08:35:56;;;;;;;46.67;6.78;;;12.80;99.90;;;;;;5029453;28;20410;-84
2022/01/02 08:38:23;;;;;;;49.33;7.93;;;12.80;99.90;;;;;;5003453;28;20037;-84
2022/01/02 08:40:49;;;;;;;53.33;7.15;;;12.80;99.90;;;;;;5028978;28;20072;-84
2022/01/02 08:43:14;;;;;;;44.22;6.40;;;12.80;99.90;;;;;;5011280;28;20030;-84
2022/01/02 08:45:40;;;;;;;50.22;7.18;;;12.80;99.90;;;;;;5011343;28;20040;-84
2022/01/02 08:48:06;;;;;;;53.35;8.02;;;12.80;99.90;;;;;;5028444;28;20089;-84
2022/01/02 08:50:33;;;;;;;42.65;8.07;;;12.70;99.90;;;;;;5028497;28;20041;-84
2022/01/02 08:52:59;;;;;;;37.13;7.13;;;12.80;99.90;;;;;;5029134;28;20401;-84
2022/01/02 08:55:24;;;;;;;51.53;8.63;;;12.70;99.90;;;;;;5029109;28;20091;-84
2022/01/02 08:57:50;;;;;;;56.38;8.55;;;12.80;99.90;;;;;;5028997;28;20021;-84
2022/01/02 09:00:16;;;;;;;41.47;7.85;;;12.80;99.90;;;;;;5028773;28;20029;-84
2022/01/02 09:02:42;;;;;;;58.05;8.02;;;12.90;99.90;;;;;;5011246;28;20030;-84
2022/01/02 09:05:08;;;;;;;49.65;8.00;;;12.80;99.90;;;;;;5028701;28;20018;-84
2022/01/02 09:07:35;;;;;;;46.88;9.68;;;12.70;99.90;;;;;;5028337;28;20034;-84
2022/01/02 09:10:01;;;;;;;50.72;8.60;;;12.80;99.90;;;;;;5028534;28;20026;-84
2022/01/02 09:12:27;;;;;;;49.35;7.65;;;12.80;99.90;;;;;;5010917;28;20107;-84
2022/01/02 09:14:52;;;;;;;46.13;9.02;;;12.80;99.90;;;;;;5028704;28;20370;-84
2022/01/02 09:17:18;;;;;;;58.65;10.60;;;12.80;99.90;;;;;;5010897;28;20032;-84
2022/01/02 09:19:44;;;;;;;51.75;9.07;;;12.80;99.90;;;;;;5028554;28;20026;-84
2022/01/02 09:22:10;;;;;;;42.20;7.18;;;12.80;99.90;;;;;;5028426;28;20029;-84
2022/01/02 09:24:36;;;;;;;55.83;9.82;;;12.80;99.90;;;;;;5029005;28;20026;-84
2022/01/02 09:27:01;;;;;;;52.92;11.02;;;12.80;99.90;;;;;;5028226;28;20464;-84
2022/01/02 09:29:28;;;;;;;49.50;8.55;;;12.90;99.90;;;;;;5028432;28;20017;-84
2022/01/02 09:31:53;;;;;;;52.67;7.53;;;13.00;99.90;;;;;;5028641;28;20022;-79
2022/01/02 09:34:19;;;;;;;55.35;9.20;;;13.00;99.90;;;;;;5029461;28;20021;-79
2022/01/02 09:36:45;;;;;;;38.50;6.03;;;13.10;99.90;;;;;;5032666;28;20100;-80
2022/01/02 09:39:11;;;;;;;54.20;6.95;;;13.10;99.90;;;;;;5019284;28;20075;-79
2022/01/02 09:41:38;;;;;;;47.75;6.80;;;13.10;99.90;;;;;;5032154;28;20048;-80
2022/01/02 09:44:05;;;;;;;49.40;6.50;;;13.10;99.90;;;;;;5032413;28;20129;-80
2022/01/02 09:46:32;;;;;;;59.65;7.22;;;13.10;99.90;;;;;;5031766;28;20025;-79
2022/01/02 09:48:57;;;;;;;54.53;8.23;;;13.10;99.90;;;;;;5031399;28;20533;-79
2022/01/02 09:51:25;;;;;;;62.70;10.55;;;13.10;99.90;;;;;;5031784;28;20038;-79
2022/01/02 09:53:55;;;;;;;45.05;9.10;;;13.10;99.90;;;;;;5014145;28;20033;-80
2022/01/02 09:56:22;;;;;;;55.20;7.85;;;13.10;99.90;;;;;;5031921;28;20494;-81
2022/01/02 09:58:48;;;;;;;61.33;8.30;;;13.10;99.90;;;;;;5020617;28;20014;-81
2022/01/02 10:01:19;;;;;;;48.33;7.28;;;13.10;99.90;;;;;;5012444;28;20026;-81
2022/01/02 10:03:47;;;;;;;53.45;8.63;;;13.20;99.90;;;;;;5012459;28;20026;-81
2022/01/02 10:06:13;;;;;;;51.60;7.60;;;13.20;99.90;;;;;;5012191;28;20112;-79
2022/01/02 10:08:39;;;;;;;47.70;7.45;;;13.30;99.90;;;;;;5012517;28;20053;-80
2022/01/02 10:11:10;;;;;;;52.05;7.25;;;13.30;99.90;;;;;;5012323;28;20022;-80
2022/01/02 10:13:46;;;;;;;62.28;9.10;;;13.20;99.90;;;;;;5012456;28;20025;-80
2022/01/02 10:16:36;;;;;;;54.25;8.82;;;13.10;99.90;;;;;;5006087;28;20026;-80
2022/01/02 10:19:21;;;;;;;68.60;12.20;;;13.10;99.90;;;;;;5012274;28;20029;-80
2022/01/02 10:21:57;;;;;;;52.05;11.15;;;13.10;99.90;;;;;;5012646;28;20033;-77
2022/01/02 10:24:27;;;;;;;49.33;10.27;;;13.10;99.90;;;;;;5012399;28;20030;-78
2022/01/02 10:27:12;;;;;;;56.75;10.85;;;13.10;99.90;;;;;;5005984;28;20123;-77
2022/01/02 10:29:59;;;;;;;52.47;12.35;;;13.20;99.90;;;;;;5012121;28;20368;-77
2022/01/02 10:32:27;;;;;;;67.53;11.45;;;13.30;99.90;;;;;;5006382;28;20026;-77
2022/01/02 10:35:14;;;;;;;61.58;12.82;;;13.40;99.90;;;;;;5011824;28;20026;-77
2022/01/02 10:37:54;;;;;;;43.70;6.88;;;13.60;99.90;;;;;;5012170;28;20540;-77
2022/01/02 10:40:32;;;;;;;42.85;7.68;;;13.70;99.90;;;;;;5012141;28;20367;-76
2022/01/02 10:43:00;;;;;;;39.30;5.75;;;13.70;99.90;;;;;;5012647;28;20030;-77
2022/01/02 10:45:41;;;;;;;40.03;6.43;;;13.80;99.90;;;;;;5011222;28;20026;-77
2022/01/02 10:48:12;;;;;;;51.92;8.93;;;13.70;99.90;;;;;;5011760;28;20057;-78
2022/01/02 10:50:40;;;;;;;52.25;9.90;;;13.80;99.90;;;;;;5011609;28;20565;-77
2022/01/02 10:53:17;;;;;;;51.40;12.75;;;13.90;99.90;;;;;;5011827;28;20105;-78
2022/01/02 10:55:46;;;;;;;45.67;8.80;;;13.90;99.90;;;;;;5012057;28;20363;-78
2022/01/02 10:58:13;;;;;;;53.40;12.40;;;13.90;99.90;;;;;;5011742;28;20426;-78
2022/01/02 11:00:40;;;;;;;51.15;14.73;;;14.00;99.90;;;;;;5011807;28;20491;-77
2022/01/02 11:03:06;;;;;;;46.70;9.07;;;14.00;99.90;;;;;;5011600;28;20026;-77
2022/01/02 11:05:34;;;;;;;46.70;7.88;;;14.00;99.90;;;;;;5011522;28;20050;-77
2022/01/02 11:08:02;;;;;;;38.90;6.50;;;14.10;99.90;;;;;;5011178;28;20042;-77
2022/01/02 11:10:30;;;;;;;34.28;6.28;;;14.10;99.90;;;;;;5011061;28;20022;-77
2022/01/02 11:12:57;;;;;;;43.28;7.65;;;14.10;99.90;;;;;;5011268;28;20637;-77
2022/01/02 11:15:25;;;;;;;42.25;7.60;;;14.10;99.90;;;;;;5011506;28;20026;-77
2022/01/02 11:17:52;;;;;;;37.67;7.20;;;14.10;99.90;;;;;;5005071;28;20030;-77
2022/01/02 11:20:32;;;;;;;33.30;5.82;;;14.20;99.90;;;;;;5004657;28;20064;-77
2022/01/02 11:23:24;;;;;;;32.63;6.90;;;14.20;99.90;;;;;;5011183;28;20030;-77
2022/01/02 11:26:06;;;;;;;38.83;7.07;;;14.30;99.90;;;;;;5011255;28;20029;-77
2022/01/02 11:28:45;;;;;;;36.22;6.20;;;14.30;99.90;;;;;;5011115;28;20088;-77
2022/01/02 11:31:25;;;;;;;43.50;7.80;;;14.30;99.90;;;;;;5010871;28;20022;-77
2022/01/02 11:33:54;;;;;;;32.78;5.82;;;14.30;99.90;;;;;;5010622;28;20176;-77
2022/01/02 11:36:21;;;;;;;33.78;4.90;;;14.40;99.90;;;;;;5010800;28;20037;-77
2022/01/02 11:38:58;;;;;;;37.72;6.10;;;14.40;99.90;;;;;;5010916;28;20033;-77
2022/01/02 11:41:37;;;;;;;38.60;5.25;;;14.50;99.90;;;;;;5010612;28;20030;-77
2022/01/02 11:44:08;;;;;;;38.55;6.57;;;14.50;99.90;;;;;;5010736;28;20438;-78
2022/01/02 11:46:47;;;;;;;37.53;8.15;;;14.50;99.90;;;;;;5010606;28;20030;-77
2022/01/02 11:49:16;;;;;;;40.50;6.15;;;14.50;99.90;;;;;;5010452;28;20064;-77
2022/01/02 11:51:48;;;;;;;35.08;5.45;;;14.50;99.90;;;;;;5010334;28;20471;-77
2022/01/02 11:54:32;;;;;;;36.53;5.30;;;14.60;99.90;;;;;;5010266;28;20033;-77
2022/01/02 11:56:59;;;;;;;34.88;5.90;;;14.70;99.90;;;;;;5009633;28;20030;-77
2022/01/02 11:59:40;;;;;;;44.67;9.23;;;14.60;99.90;;;;;;5010455;28;20133;-78
2022/01/02 12:02:09;;;;;;;42.28;7.45;;;14.50;99.90;;;;;;5010210;28;20057;-78
2022/01/02 12:04:57;;;;;;;42.38;7.32;;;14.60;99.90;;;;;;5010246;28;20018;-79
2022/01/02 12:07:37;;;;;;;42.15;6.53;;;14.60;99.90;;;;;;5010183;28;20033;-77
2022/01/02 12:12:59;;;;;;;38.10;6.80;;;14.70;99.90;;;;;;5010077;28;20039;-78
2022/01/02 12:15:45;;;;;;;52.90;8.27;;;14.70;99.90;;;;;;5010204;28;20069;-78
2022/01/02 12:18:26;;;;;;;42.60;6.80;;;14.80;99.90;;;;;;5006258;28;20041;-78
2022/01/02 12:20:52;;;;;;;29.67;5.45;;;14.80;99.90;;;;;;5010111;28;20049;-78
2022/01/02 12:23:30;;;;;;;36.45;5.57;;;14.80;99.90;;;;;;5010268;28;20498;-78
2022/01/02 12:25:59;;;;;;;43.05;7.03;;;15.00;99.90;;;;;;5010021;28;20517;-77
2022/01/02 12:28:27;;;;;;;41.20;6.88;;;15.00;99.90;;;;;;5010029;28;20037;-77
2022/01/02 12:30:53;;;;;;;36.00;5.80;;;15.00;99.90;;;;;;5009868;28;20076;-77
2022/01/02 12:33:27;;;;;;;35.72;5.70;;;15.00;99.90;;;;;;5007339;28;20481;-77
2022/01/02 12:35:53;;;;;;;44.53;6.57;;;14.90;99.90;;;;;;5010136;28;20037;-77
2022/01/02 12:38:19;;;;;;;36.00;5.78;;;14.80;99.90;;;;;;5009935;28;20032;-77
2022/01/02 12:40:46;;;;;;;37.70;5.57;;;14.90;99.90;;;;;;5011695;28;20097;-78
2022/01/02 12:43:12;;;;;;;38.65;8.60;;;14.90;99.90;;;;;;5010295;28;20022;-78
2022/01/02 12:45:39;;;;;;;47.45;9.75;;;14.90;99.90;;;;;;5009900;28;20075;-78
2022/01/02 12:48:05;;;;;;;50.15;11.73;;;14.90;99.90;;;;;;5009538;28;20053;-78
2022/01/02 12:50:32;;;;;;;36.47;7.35;;;15.00;99.90;;;;;;5009602;28;21015;-78
2022/01/02 12:52:59;;;;;;;43.95;7.68;;;14.70;99.90;;;;;;5009336;28;20026;-78
2022/01/02 12:55:26;;;;;;;49.17;8.18;;;14.50;99.90;;;;;;5009545;28;20535;-78